createdAt,value
2022-10-11T00:06:26.327Z,10.90
2022-10-11T00:16:32.015Z,9.40
2022-10-11T00:26:37.618Z,9.00
2022-10-11T00:36:43.233Z,8.70
2022-10-11T00:46:56.226Z,9.30
2022-10-11T00:57:06.405Z,9.80
2022-10-11T01:07:12.911Z,9.60
2022-10-11T01:17:25.918Z,9.50
2022-10-11T01:27:50.739Z,9.60
2022-10-11T01:38:04.018Z,9.60
2022-10-11T01:48:12.427Z,10.60
2022-10-11T01:58:32.740Z,10.40
2022-10-11T02:08:46.242Z,8.60
2022-10-11T02:18:56.812Z,10.40
2022-10-11T02:29:05.282Z,10.40
2022-10-11T02:39:19.675Z,9.70
2022-10-11T02:49:27.409Z,9.90
2022-10-11T02:59:33.044Z,10.90
2022-10-11T03:09:38.894Z,10.40
2022-10-11T03:19:44.638Z,9.40
2022-10-11T03:29:50.388Z,9.80
2022-10-11T03:39:56.151Z,11.70
2022-10-11T03:50:01.852Z,11.20
2022-10-11T04:00:10.290Z,10.40
2022-10-11T04:10:15.870Z,10.70
2022-10-11T04:20:21.558Z,12.50
2022-10-11T04:30:27.142Z,10.20
2022-10-11T04:40:32.800Z,12.20
2022-10-11T04:50:38.694Z,13.90
2022-10-11T05:00:44.478Z,14.40
2022-10-11T05:10:58.764Z,12.50
2022-10-11T05:21:06.821Z,13.20
2022-10-11T05:31:12.883Z,14.90
2022-10-11T05:41:18.671Z,13.70
2022-10-11T05:51:24.304Z,11.70
2022-10-11T06:01:30.608Z,10.60
2022-10-11T06:11:36.326Z,9.40
2022-10-11T06:21:41.950Z,11.30
2022-10-11T06:31:48.777Z,12.20
2022-10-11T06:41:54.341Z,9.70
2022-10-11T06:52:00.166Z,10.60
2022-10-11T07:02:05.753Z,11.20
2022-10-11T07:12:11.866Z,10.00
2022-10-11T07:22:17.541Z,10.90
2022-10-11T07:32:23.157Z,10.90
2022-10-11T07:42:28.913Z,11.10
2022-10-11T07:52:35.950Z,10.80
2022-10-11T08:02:41.573Z,8.40
2022-10-11T08:12:49.578Z,8.30
2022-10-11T08:22:55.190Z,8.00
2022-10-11T08:33:03.043Z,6.90
2022-10-11T08:43:26.877Z,4.10
2022-10-11T08:53:45.652Z,2.90
2022-10-11T09:03:52.227Z,2.70
2022-10-11T09:14:27.739Z,2.40
2022-10-11T09:24:47.427Z,2.50
2022-10-11T09:34:59.603Z,1.90
2022-10-11T09:45:15.612Z,2.30
2022-10-11T09:55:36.790Z,3.00
2022-10-11T10:05:42.481Z,1.70
2022-10-11T10:15:50.907Z,1.40
2022-10-11T10:26:13.395Z,1.80
2022-10-11T10:36:25.464Z,1.80
2022-10-11T10:46:46.569Z,1.50
2022-10-11T10:56:57.238Z,1.70
2022-10-11T11:07:14.371Z,1.20
2022-10-11T11:17:31.897Z,1.20
2022-10-11T11:27:51.784Z,1.20
2022-10-11T11:38:06.354Z,1.00
2022-10-11T11:48:19.653Z,1.10
2022-10-11T11:58:36.863Z,1.80
2022-10-11T12:08:45.611Z,1.30
2022-10-11T12:19:00.618Z,1.70
2022-10-11T12:29:43.424Z,1.50
2022-10-11T12:39:54.909Z,1.30
2022-10-11T12:50:14.292Z,1.60
2022-10-11T13:00:26.301Z,1.50
2022-10-11T13:10:36.968Z,1.60
2022-10-11T13:20:43.035Z,1.30
2022-10-11T13:30:52.330Z,1.20
2022-10-11T13:40:59.543Z,1.70
2022-10-11T13:51:09.968Z,1.80
2022-10-11T14:01:23.294Z,2.00
2022-10-11T14:11:40.276Z,1.70
2022-10-11T14:21:53.928Z,1.50
2022-10-11T14:32:03.973Z,2.40
2022-10-11T14:42:10.375Z,1.20
2022-10-11T14:52:16.312Z,1.70
2022-10-11T15:02:21.918Z,2.20
2022-10-11T15:12:27.582Z,1.50
2022-10-11T15:22:33.280Z,2.00
2022-10-11T15:32:38.937Z,3.30
2022-10-11T15:42:44.822Z,2.10
2022-10-11T15:52:50.724Z,2.20
2022-10-11T16:02:57.559Z,2.00
2022-10-11T16:13:03.290Z,1.50
2022-10-11T16:23:09.643Z,2.10
2022-10-11T16:33:15.642Z,2.90
2022-10-11T16:43:21.391Z,4.50
2022-10-11T16:53:27.347Z,4.10
2022-10-11T17:03:32.961Z,5.20
2022-10-11T17:13:38.626Z,8.20
2022-10-11T17:23:45.096Z,14.40
2022-10-11T17:33:50.707Z,10.60
2022-10-11T17:43:56.375Z,9.90
2022-10-11T17:54:02.151Z,14.10
2022-10-11T18:04:10.197Z,36.00
2022-10-11T18:14:16.211Z,22.80
2022-10-11T18:24:21.832Z,25.50
2022-10-11T18:34:27.500Z,27.40
2022-10-11T18:44:33.351Z,33.00
2022-10-11T18:54:39.064Z,43.40
2022-10-11T19:04:44.655Z,48.80
2022-10-11T19:14:50.562Z,42.20
2022-10-11T19:24:56.401Z,41.30
2022-10-11T19:35:02.248Z,46.00
2022-10-11T19:45:10.061Z,41.50
2022-10-11T20:05:20.850Z,46.40
2022-10-11T20:15:26.485Z,46.70
2022-10-11T20:25:32.313Z,43.00
2022-10-11T20:35:38.115Z,53.90
2022-10-11T20:45:43.922Z,62.00
2022-10-11T20:55:50.046Z,49.60
2022-10-11T21:06:01.606Z,52.80
2022-10-11T21:16:10.856Z,58.60
2022-10-11T21:26:18.348Z,62.40
2022-10-11T21:47:04.790Z,65.60
2022-10-11T21:56:56.539Z,62.70
2022-10-11T22:07:02.299Z,60.80
2022-10-11T22:17:07.977Z,63.30
2022-10-11T22:27:14.083Z,61.10
2022-10-11T22:37:19.638Z,60.60
2022-10-11T22:47:25.657Z,61.70
2022-10-11T22:57:31.284Z,59.90
2022-10-11T23:07:37.384Z,60.10
2022-10-11T23:17:43.665Z,59.00
2022-10-11T23:27:49.256Z,57.90
2022-10-11T23:37:56.669Z,57.60
2022-10-11T23:48:02.299Z,55.50
2022-10-11T23:58:08.068Z,51.00
